createdAt,value
2022-08-02T00:02:40.927Z,19.83
2022-08-02T00:05:23.108Z,19.81
2022-08-02T00:08:12.253Z,19.76
2022-08-02T00:10:53.060Z,19.74
2022-08-02T00:13:39.883Z,19.67
2022-08-02T00:16:21.323Z,19.69
2022-08-02T00:19:26.405Z,19.71
2022-08-02T00:22:07.136Z,19.72
2022-08-02T00:25:00.887Z,19.75
2022-08-02T00:27:49.477Z,19.74
2022-08-02T00:30:31.042Z,19.76
2022-08-02T00:34:05.257Z,19.80
2022-08-02T00:36:23.897Z,19.70
2022-08-02T00:39:34.601Z,19.63
2022-08-02T00:42:13.155Z,19.62
2022-08-02T00:45:03.046Z,19.61
2022-08-02T00:47:43.899Z,19.58
2022-08-02T00:50:33.644Z,19.61
2022-08-02T00:53:17.911Z,19.58
2022-08-02T00:56:07.098Z,19.66
2022-08-02T00:58:48.301Z,19.66
2022-08-02T01:01:38.726Z,19.69
2022-08-02T01:04:38.938Z,19.67
2022-08-02T01:07:27.087Z,19.60
2022-08-02T01:10:07.935Z,19.57
2022-08-02T01:12:55.187Z,19.69
2022-08-02T01:15:36.851Z,19.70
2022-08-02T01:18:58.021Z,19.59
2022-08-02T01:21:46.331Z,19.51
2022-08-02T01:25:03.907Z,19.44
2022-08-02T01:28:29.035Z,19.50
2022-08-02T01:31:36.025Z,19.49
2022-08-02T01:34:49.287Z,19.44
2022-08-02T01:37:49.584Z,19.44
2022-08-02T01:40:38.292Z,19.38
2022-08-02T01:43:20.040Z,19.33
2022-08-02T01:46:08.318Z,19.30
2022-08-02T01:48:52.716Z,19.32
2022-08-02T01:52:00.948Z,19.31
2022-08-02T01:54:44.030Z,19.44
2022-08-02T01:57:33.730Z,19.56
2022-08-02T02:00:24.853Z,19.41
2022-08-02T02:03:16.951Z,19.32
2022-08-02T02:06:02.061Z,19.23
2022-08-02T02:08:50.953Z,19.18
2022-08-02T02:12:09.654Z,19.18
2022-08-02T02:14:41.941Z,19.20
2022-08-02T02:17:52.922Z,19.23
2022-08-02T02:20:43.689Z,19.21
2022-08-02T02:23:27.193Z,19.15
2022-08-02T02:26:31.329Z,19.08
2022-08-02T02:29:21.083Z,19.16
2022-08-02T02:32:04.106Z,19.08
2022-08-02T02:34:58.439Z,19.14
2022-08-02T02:37:41.476Z,19.19
2022-08-02T02:40:31.135Z,19.08
2022-08-02T02:43:14.947Z,19.20
2022-08-02T02:46:05.036Z,19.19
2022-08-02T02:48:47.740Z,19.26
2022-08-02T02:51:36.061Z,19.19
2022-08-02T02:54:32.083Z,19.15
2022-08-02T02:57:24.499Z,19.00
2022-08-02T03:00:06.927Z,19.09
2022-08-02T03:02:54.099Z,18.91
2022-08-02T03:05:35.360Z,18.90
2022-08-02T03:08:22.167Z,18.87
2022-08-02T03:11:04.494Z,18.83
2022-08-02T03:13:53.836Z,18.93
2022-08-02T03:16:36.369Z,18.85
2022-08-02T03:19:25.125Z,18.78
2022-08-02T03:22:15.589Z,18.84
2022-08-02T03:25:08.966Z,18.69
2022-08-02T03:27:59.544Z,18.43
2022-08-02T03:30:41.756Z,18.49
2022-08-02T03:33:31.404Z,18.35
2022-08-02T03:36:20.085Z,18.22
2022-08-02T03:39:08.982Z,18.07
2022-08-02T03:41:51.193Z,18.10
2022-08-02T03:44:39.993Z,18.08
2022-08-02T03:47:21.134Z,18.14
2022-08-02T03:50:09.372Z,18.12
2022-08-02T03:52:53.580Z,18.15
2022-08-02T03:55:44.059Z,18.17
2022-08-02T03:58:27.138Z,18.20
2022-08-02T04:01:14.138Z,18.19
2022-08-02T04:03:55.930Z,18.20
2022-08-02T04:06:47.043Z,18.19
2022-08-02T04:09:28.114Z,18.47
2022-08-02T04:12:15.797Z,18.49
2022-08-02T04:14:58.189Z,18.47
2022-08-02T04:17:51.394Z,18.37
2022-08-02T04:20:36.204Z,18.39
2022-08-02T04:23:26.920Z,18.22
2022-08-02T04:26:19.061Z,18.05
2022-08-02T04:29:08.417Z,18.02
2022-08-02T04:31:59.172Z,17.89
2022-08-02T04:34:41.098Z,17.97
2022-08-02T04:37:28.537Z,18.02
2022-08-02T04:40:09.425Z,18.26
2022-08-02T04:42:57.211Z,18.24
2022-08-02T04:45:38.811Z,18.20
2022-08-02T04:48:28.452Z,18.06
2022-08-02T04:51:09.037Z,17.99
2022-08-02T04:53:56.161Z,18.00
2022-08-02T04:56:51.394Z,18.01
2022-08-02T04:59:39.210Z,17.93
2022-08-02T05:02:23.038Z,18.36
2022-08-02T05:05:11.159Z,19.13
2022-08-02T05:07:52.821Z,19.89
2022-08-02T05:10:43.507Z,20.57
2022-08-02T05:13:24.051Z,21.24
2022-08-02T05:16:13.238Z,22.08
2022-08-02T05:18:54.073Z,22.75
2022-08-02T05:21:42.318Z,23.38
2022-08-02T05:24:23.079Z,24.15
2022-08-02T05:27:16.446Z,24.64
2022-08-02T05:30:02.949Z,25.06
2022-08-02T05:32:57.767Z,25.87
2022-08-02T05:35:38.472Z,26.42
2022-08-02T05:38:26.426Z,26.52
2022-08-02T05:41:08.180Z,27.04
2022-08-02T05:43:56.653Z,27.95
2022-08-02T05:46:38.060Z,28.73
2022-08-02T05:49:32.191Z,29.35
2022-08-02T05:52:25.264Z,29.75
2022-08-02T05:55:18.391Z,29.82
2022-08-02T05:58:31.110Z,29.63
2022-08-02T06:01:24.243Z,29.53
2022-08-02T06:04:07.088Z,29.77
2022-08-02T06:07:07.419Z,30.11
2022-08-02T06:09:50.092Z,30.13
2022-08-02T06:12:46.810Z,30.45
2022-08-02T06:15:28.103Z,30.99
2022-08-02T06:18:16.615Z,31.55
2022-08-02T06:20:58.083Z,32.27
2022-08-02T06:23:58.694Z,32.82
2022-08-02T06:26:55.255Z,33.05
2022-08-02T06:29:44.440Z,33.17
2022-08-02T06:32:27.387Z,33.32
2022-08-02T06:35:17.205Z,33.82
2022-08-02T06:37:59.977Z,34.57
2022-08-02T06:41:13.802Z,35.46
2022-08-02T06:44:41.998Z,35.99
2022-08-02T06:47:15.199Z,36.40
2022-08-02T06:49:56.597Z,36.59
2022-08-02T06:52:46.532Z,36.88
2022-08-02T06:55:27.503Z,36.89
2022-08-02T06:58:15.243Z,36.89
2022-08-02T07:00:58.116Z,36.81
2022-08-02T07:03:48.252Z,36.88
2022-08-02T07:06:30.337Z,37.00
2022-08-02T07:09:21.612Z,37.10
2022-08-02T07:12:05.383Z,37.27
2022-08-02T07:14:54.160Z,37.36
2022-08-02T07:17:36.880Z,37.22
2022-08-02T07:20:24.326Z,37.07
2022-08-02T07:23:06.540Z,37.20
2022-08-02T07:26:05.359Z,37.38
2022-08-02T07:28:54.393Z,37.59
2022-08-02T07:31:36.313Z,37.65
2022-08-02T07:34:24.371Z,37.32
2022-08-02T07:37:12.518Z,37.24
2022-08-02T07:40:20.352Z,37.56
2022-08-02T07:43:04.227Z,37.18
2022-08-02T07:45:55.867Z,37.15
2022-08-02T07:48:42.763Z,37.17
2022-08-02T07:51:31.149Z,36.97
2022-08-02T07:54:12.281Z,36.55
2022-08-02T07:57:07.176Z,36.49
2022-08-02T07:59:50.829Z,35.92
2022-08-02T08:02:39.373Z,35.52
2022-08-02T08:05:21.259Z,35.06
2022-08-02T08:08:15.068Z,35.45
2022-08-02T08:10:59.196Z,35.72
2022-08-02T08:13:50.018Z,35.80
2022-08-02T08:16:31.280Z,35.47
2022-08-02T08:19:18.930Z,35.27
2022-08-02T08:22:01.865Z,35.56
2022-08-02T08:24:49.049Z,36.16
2022-08-02T08:27:38.300Z,36.77
2022-08-02T08:30:19.557Z,37.29
2022-08-02T08:33:08.327Z,36.98
2022-08-02T08:35:50.380Z,36.41
2022-08-02T08:38:40.276Z,35.85
2022-08-02T08:41:23.212Z,36.00
2022-08-02T08:44:11.699Z,36.39
2022-08-02T08:46:55.966Z,36.99
2022-08-02T08:49:52.658Z,37.54
2022-08-02T08:52:34.975Z,37.99
2022-08-02T08:55:25.540Z,37.91
2022-08-02T08:58:09.542Z,37.72
2022-08-02T09:00:57.373Z,37.14
2022-08-02T09:03:38.968Z,37.19
2022-08-02T09:06:32.389Z,36.97
2022-08-02T09:09:14.332Z,36.98
2022-08-02T09:12:01.347Z,37.09
2022-08-02T09:14:42.223Z,37.03
2022-08-02T09:17:30.348Z,36.88
2022-08-02T09:20:15.649Z,36.99
2022-08-02T09:23:18.846Z,37.10
2022-08-02T09:26:19.600Z,37.21
2022-08-02T09:29:11.276Z,37.39
2022-08-02T09:31:53.340Z,37.47
2022-08-02T09:35:00.509Z,37.32
2022-08-02T09:37:42.833Z,37.28
2022-08-02T09:40:42.617Z,37.15
2022-08-02T09:43:24.231Z,36.63
2022-08-02T09:46:25.488Z,36.17
2022-08-02T09:49:22.330Z,35.64
2022-08-02T09:52:11.587Z,35.25
2022-08-02T09:54:52.999Z,34.84
2022-08-02T09:57:40.383Z,34.24
2022-08-02T10:00:37.013Z,34.19
2022-08-02T10:03:35.062Z,34.50
2022-08-02T10:06:17.363Z,34.73
2022-08-02T10:09:06.411Z,35.04
2022-08-02T10:11:47.268Z,35.19
2022-08-02T10:14:35.614Z,35.38
2022-08-02T10:17:22.245Z,35.56
2022-08-02T10:20:11.401Z,35.65
2022-08-02T10:22:52.430Z,35.82
2022-08-02T10:25:45.423Z,35.66
2022-08-02T10:28:38.247Z,35.42
2022-08-02T10:31:22.407Z,35.23
2022-08-02T10:34:17.404Z,34.88
2022-08-02T10:37:01.342Z,34.37
2022-08-02T10:39:52.825Z,33.62
2022-08-02T10:42:54.473Z,32.80
2022-08-02T10:49:43.683Z,31.71
2022-08-02T10:52:36.279Z,31.31
2022-08-02T10:55:22.134Z,30.71
2022-08-02T10:58:35.194Z,30.92
2022-08-02T11:01:52.165Z,31.42
2022-08-02T11:04:52.546Z,31.97
2022-08-02T11:07:50.378Z,32.18
2022-08-02T11:10:46.271Z,32.35
2022-08-02T11:13:28.624Z,32.49
2022-08-02T11:16:17.838Z,32.91
2022-08-02T11:18:58.381Z,33.37
2022-08-02T11:21:48.523Z,33.80
2022-08-02T11:24:37.446Z,34.16
2022-08-02T11:27:27.293Z,34.38
2022-08-02T11:30:19.489Z,34.50
2022-08-02T11:33:13.317Z,34.57
2022-08-02T11:35:57.555Z,34.54
2022-08-02T11:38:44.312Z,34.53
2022-08-02T11:41:45.888Z,34.56
2022-08-02T11:44:36.318Z,34.67
2022-08-02T11:47:20.071Z,34.64
2022-08-02T11:50:17.168Z,34.67
2022-08-02T11:52:59.419Z,34.77
2022-08-02T11:55:46.334Z,34.84
2022-08-02T11:58:27.564Z,34.85
2022-08-02T12:01:16.327Z,34.51
2022-08-02T12:04:03.509Z,34.09
2022-08-02T12:06:51.070Z,33.97
2022-08-02T12:09:40.736Z,34.01
2022-08-02T12:12:30.237Z,34.10
2022-08-02T12:15:11.444Z,34.13
2022-08-02T12:18:18.326Z,34.16
2022-08-02T12:21:02.588Z,34.18
2022-08-02T12:23:59.812Z,34.34
2022-08-02T12:26:59.309Z,34.43
2022-08-02T12:29:55.885Z,34.34
2022-08-02T12:32:40.988Z,34.37
2022-08-02T12:35:28.338Z,34.41
2022-08-02T12:38:17.419Z,34.14
2022-08-02T12:41:30.230Z,33.95
2022-08-02T12:44:12.746Z,33.96
2022-08-02T12:47:12.352Z,34.11
2022-08-02T12:49:53.460Z,34.21
2022-08-02T12:52:41.455Z,34.29
2022-08-02T12:56:02.544Z,34.23
2022-08-02T12:58:56.736Z,34.21
2022-08-02T13:01:37.512Z,34.19
2022-08-02T13:04:25.842Z,34.30
2022-08-02T13:07:07.330Z,34.17
2022-08-02T13:10:02.671Z,34.10
2022-08-02T13:12:44.462Z,33.99
2022-08-02T13:15:49.898Z,33.99
2022-08-02T13:18:33.257Z,33.85
2022-08-02T13:21:40.752Z,33.87
2022-08-02T13:24:38.693Z,33.67
2022-08-02T13:27:36.484Z,33.66
2022-08-02T13:30:24.501Z,33.63
2022-08-02T13:33:05.770Z,33.66
2022-08-02T13:35:55.457Z,33.69
2022-08-02T13:38:36.369Z,33.60
2022-08-02T13:41:25.617Z,33.58
2022-08-02T13:44:10.514Z,33.43
2022-08-02T13:46:58.518Z,33.40
2022-08-02T13:49:51.197Z,33.47
2022-08-02T13:52:41.293Z,33.49
2022-08-02T13:55:25.762Z,33.45
2022-08-02T13:58:14.535Z,33.32
2022-08-02T14:00:55.395Z,33.23
2022-08-02T14:04:08.024Z,33.23
2022-08-02T14:06:44.444Z,33.23
2022-08-02T14:09:33.631Z,32.93
2022-08-02T14:12:17.601Z,32.86
2022-08-02T14:15:04.694Z,32.79
2022-08-02T14:17:46.425Z,32.72
2022-08-02T14:20:34.508Z,32.51
2022-08-02T14:23:15.791Z,32.25
2022-08-02T14:26:05.543Z,32.17
2022-08-02T14:28:53.265Z,32.19
2022-08-02T14:31:37.975Z,32.26
2022-08-02T14:34:31.298Z,32.28
2022-08-02T14:37:12.593Z,32.32
2022-08-02T14:40:01.201Z,32.38
2022-08-02T14:42:42.580Z,32.29
2022-08-02T14:45:39.992Z,32.10
2022-08-02T14:48:22.583Z,31.97
2022-08-02T14:51:10.543Z,31.79
2022-08-02T14:54:02.861Z,31.62
2022-08-02T14:56:57.441Z,31.75
2022-08-02T14:59:42.612Z,31.81
2022-08-02T15:02:29.407Z,31.87
2022-08-02T15:05:10.523Z,32.05
2022-08-02T15:07:59.422Z,31.99
2022-08-02T15:10:41.093Z,32.04
2022-08-02T15:13:27.416Z,32.15
2022-08-02T15:16:08.542Z,32.15
2022-08-02T15:18:55.445Z,32.19
2022-08-02T15:21:41.464Z,32.29
2022-08-02T15:24:29.437Z,32.21
2022-08-02T15:27:24.416Z,32.12
2022-08-02T15:30:15.442Z,32.01
2022-08-02T15:32:58.217Z,31.65
2022-08-02T15:35:46.506Z,31.53
2022-08-02T15:38:30.583Z,31.52
2022-08-02T15:41:20.817Z,31.53
2022-08-02T15:44:01.995Z,31.66
2022-08-02T15:46:48.464Z,31.71
2022-08-02T15:49:29.598Z,31.74
2022-08-02T15:52:18.612Z,31.85
2022-08-02T15:55:07.022Z,31.89
2022-08-02T15:57:55.456Z,31.76
2022-08-02T16:00:36.577Z,31.72
2022-08-02T16:03:25.833Z,31.70
2022-08-02T16:06:06.605Z,31.81
2022-08-02T16:08:56.356Z,31.85
2022-08-02T16:11:38.560Z,31.84
2022-08-02T16:14:28.243Z,31.80
2022-08-02T16:17:10.487Z,31.75
2022-08-02T16:19:57.942Z,31.84
2022-08-02T16:22:38.748Z,31.90
2022-08-02T16:25:29.310Z,31.86
2022-08-02T16:28:19.055Z,31.85
2022-08-02T16:31:10.360Z,31.82
2022-08-02T16:33:58.571Z,31.81
2022-08-02T16:36:39.852Z,31.85
2022-08-02T16:39:28.440Z,31.85
2022-08-02T16:42:12.000Z,31.84
2022-08-02T16:45:03.584Z,31.87
2022-08-02T16:47:57.478Z,31.86
2022-08-02T16:50:48.454Z,31.91
2022-08-02T16:53:37.174Z,31.89
2022-08-02T16:56:26.823Z,31.89
2022-08-02T16:59:07.510Z,31.89
2022-08-02T17:05:01.492Z,31.95
2022-08-02T17:08:15.237Z,31.93
2022-08-02T17:10:54.870Z,31.94
2022-08-02T17:13:43.783Z,31.97
2022-08-02T17:16:26.592Z,32.00
2022-08-02T17:19:14.595Z,31.98
2022-08-02T17:21:55.526Z,31.86
2022-08-02T17:24:46.016Z,31.84
2022-08-02T17:27:37.032Z,31.75
2022-08-02T17:30:26.936Z,31.76
2022-08-02T17:33:15.549Z,31.77
2022-08-02T17:35:58.475Z,31.76
2022-08-02T17:38:50.180Z,31.80
2022-08-02T17:44:43.033Z,31.79
2022-08-02T17:47:31.433Z,31.72
2022-08-02T17:50:32.288Z,31.62
2022-08-02T17:53:13.631Z,31.66
2022-08-02T17:56:01.534Z,31.63
2022-08-02T17:58:51.919Z,31.58
2022-08-02T18:01:52.942Z,31.53
2022-08-02T18:04:38.003Z,31.51
2022-08-02T18:07:25.555Z,31.52
2022-08-02T18:10:24.680Z,31.41
2022-08-02T18:13:13.920Z,31.34
2022-08-02T18:15:59.094Z,31.30
2022-08-02T18:18:47.941Z,31.31
2022-08-02T18:21:35.020Z,31.25
2022-08-02T18:24:24.068Z,31.23
2022-08-02T18:27:17.566Z,31.26
2022-08-02T18:30:07.549Z,31.25
2022-08-02T18:33:57.104Z,31.38
2022-08-02T18:35:55.945Z,31.35
2022-08-02T18:38:36.691Z,31.36
2022-08-02T18:41:24.941Z,31.34
2022-08-02T18:44:08.025Z,31.30
2022-08-02T18:46:56.957Z,31.14
2022-08-02T18:49:46.607Z,31.01
2022-08-02T18:52:47.567Z,31.06
2022-08-02T18:56:00.211Z,30.96
2022-08-02T18:58:46.972Z,30.54
2022-08-02T19:01:39.488Z,30.36
2022-08-02T19:04:29.579Z,29.96
2022-08-02T19:07:18.695Z,29.72
2022-08-02T19:10:04.606Z,29.45
2022-08-02T19:12:52.684Z,29.09
2022-08-02T19:15:35.563Z,28.63
2022-08-02T19:18:26.685Z,28.44
2022-08-02T19:21:07.595Z,28.38
2022-08-02T19:23:58.774Z,28.25
2022-08-02T19:26:39.988Z,28.15
2022-08-02T19:29:48.614Z,27.92
2022-08-02T19:32:42.620Z,27.65
2022-08-02T19:36:01.965Z,27.71
2022-08-02T19:38:43.998Z,27.68
2022-08-02T19:41:48.108Z,27.39
2022-08-02T19:44:33.641Z,27.34
2022-08-02T19:47:21.725Z,27.26
2022-08-02T19:50:02.740Z,27.19
2022-08-02T19:52:49.933Z,27.06
2022-08-02T19:56:01.623Z,27.01
2022-08-02T19:58:44.965Z,26.90
2022-08-02T20:01:37.330Z,26.79
2022-08-02T20:04:29.284Z,26.75
2022-08-02T20:07:11.630Z,26.77
2022-08-02T20:10:01.751Z,26.75
2022-08-02T20:12:46.651Z,26.65
2022-08-02T20:15:55.832Z,26.60
2022-08-02T20:18:38.636Z,26.30
2022-08-02T20:21:35.613Z,26.18
2022-08-02T20:24:20.036Z,25.98
2022-08-02T20:27:23.019Z,25.88
2022-08-02T20:30:11.726Z,25.87
2022-08-02T20:32:58.856Z,25.70
2022-08-02T20:36:02.415Z,25.60
2022-08-02T20:38:44.523Z,25.58
2022-08-02T20:41:37.184Z,25.45
2022-08-02T20:44:30.756Z,25.29
2022-08-02T20:47:19.647Z,25.17
2022-08-02T20:50:39.672Z,25.03
2022-08-02T20:53:29.969Z,25.02
2022-08-02T20:56:12.689Z,25.10
2022-08-02T20:59:03.665Z,24.90
2022-08-02T21:01:56.859Z,24.86
2022-08-02T21:04:52.772Z,24.86
2022-08-02T21:07:34.751Z,24.87
2022-08-02T21:10:25.773Z,24.65
2022-08-02T21:13:18.905Z,24.67
2022-08-02T21:16:16.340Z,24.51
2022-08-02T21:19:00.522Z,24.53
2022-08-02T21:21:49.791Z,24.36
2022-08-02T21:24:31.293Z,24.50
2022-08-02T21:27:52.131Z,24.47
2022-08-02T21:30:32.762Z,24.34
2022-08-02T21:33:17.886Z,24.29
2022-08-02T21:36:11.912Z,24.29
2022-08-02T21:38:57.684Z,24.13
2022-08-02T21:41:47.806Z,24.04
2022-08-02T21:44:29.587Z,23.91
2022-08-02T21:47:25.288Z,24.09
2022-08-02T21:50:13.686Z,23.91
2022-08-02T21:53:06.769Z,23.94
2022-08-02T21:56:02.493Z,23.88
2022-08-02T21:58:51.988Z,23.77
2022-08-02T22:01:34.271Z,23.75
2022-08-02T22:04:21.824Z,23.59
2022-08-02T22:07:02.926Z,23.68
2022-08-02T22:09:54.078Z,23.63
2022-08-02T22:12:36.701Z,23.49
2022-08-02T22:15:25.796Z,23.51
2022-08-02T22:18:17.068Z,23.44
2022-08-02T22:21:20.578Z,23.11
2022-08-02T22:24:04.108Z,23.01
2022-08-02T22:27:00.802Z,23.22
2022-08-02T22:29:50.686Z,23.14
2022-08-02T22:32:50.924Z,23.05
2022-08-02T22:35:39.775Z,22.95
2022-08-02T22:38:21.822Z,23.03
2022-08-02T22:41:13.941Z,22.94
2022-08-02T22:43:55.348Z,22.82
2022-08-02T22:46:43.087Z,22.87
2022-08-02T22:49:39.111Z,22.89
2022-08-02T22:52:30.780Z,22.73
2022-08-02T22:55:16.156Z,22.86
2022-08-02T22:58:06.106Z,22.61
2022-08-02T22:58:49.062Z,31.79
2022-08-02T22:58:49.595Z,31.94
2022-08-02T23:00:46.877Z,22.62
2022-08-02T23:03:34.109Z,22.49
2022-08-02T23:06:17.510Z,22.52
2022-08-02T23:09:05.054Z,22.51
2022-08-02T23:11:45.869Z,22.41
2022-08-02T23:14:36.178Z,22.39
2022-08-02T23:17:35.661Z,22.53
2022-08-02T23:20:24.507Z,22.48
2022-08-02T23:23:11.520Z,22.43
2022-08-02T23:25:59.727Z,22.51
2022-08-02T23:28:49.389Z,22.48
2022-08-02T23:31:41.787Z,22.42
2022-08-02T23:34:29.867Z,22.69
2022-08-02T23:37:11.734Z,22.57
2022-08-02T23:39:59.892Z,22.45
2022-08-02T23:42:41.519Z,22.38
2022-08-02T23:45:34.960Z,22.30
2022-08-02T23:48:19.537Z,22.33
2022-08-02T23:51:09.303Z,22.58
2022-08-02T23:53:57.495Z,22.29
2022-08-02T23:56:46.899Z,22.22
2022-08-02T23:59:27.743Z,22.10
